createdAt,value
2018-04-25T00:00:09.650Z,0
2018-04-25T00:01:11.044Z,0
2018-04-25T00:02:12.431Z,0
2018-04-25T00:03:13.824Z,0
2018-04-25T00:04:15.206Z,0
2018-04-25T00:05:16.595Z,0
2018-04-25T00:06:17.986Z,0
2018-04-25T00:07:19.378Z,0
2018-04-25T00:08:20.770Z,0
2018-04-25T00:09:22.161Z,0
2018-04-25T00:10:23.550Z,0
2018-04-25T00:11:24.948Z,0
2018-04-25T00:12:26.340Z,0
2018-04-25T00:13:27.731Z,0
2018-04-25T00:14:29.121Z,0
2018-04-25T00:15:30.518Z,0
2018-04-25T00:16:31.907Z,0
2018-04-25T00:17:33.295Z,0
2018-04-25T00:18:34.746Z,0
2018-04-25T00:19:36.079Z,0
2018-04-25T00:20:37.468Z,0
2018-04-25T00:21:38.865Z,0
2018-04-25T00:22:40.257Z,0
2018-04-25T00:23:41.649Z,0
2018-04-25T00:24:43.037Z,0
2018-04-25T00:25:44.435Z,0
2018-04-25T00:26:45.826Z,0
2018-04-25T00:27:47.214Z,0
2018-04-25T00:28:48.612Z,0
2018-04-25T00:29:49.998Z,0
2018-04-25T00:30:51.394Z,0
2018-04-25T00:31:52.782Z,0
2018-04-25T00:32:54.183Z,0
2018-04-25T00:33:55.573Z,0
2018-04-25T00:34:56.965Z,0
2018-04-25T00:35:58.356Z,0
2018-04-25T00:36:59.743Z,0
2018-04-25T00:38:01.149Z,0
2018-04-25T00:39:02.533Z,0
2018-04-25T00:40:03.928Z,0
2018-04-25T00:41:05.317Z,0
2018-04-25T00:42:06.706Z,0
2018-04-25T00:43:08.096Z,0
2018-04-25T00:44:09.488Z,0
2018-04-25T00:45:11.052Z,0
2018-04-25T00:46:12.447Z,0
2018-04-25T00:47:13.837Z,0
2018-04-25T00:48:15.229Z,0
2018-04-25T00:49:16.616Z,0
2018-04-25T00:50:18.007Z,0
2018-04-25T00:51:19.399Z,0
2018-04-25T00:52:20.800Z,0
2018-04-25T00:53:22.188Z,0
2018-04-25T00:54:23.576Z,0
2018-04-25T00:55:24.964Z,0
2018-04-25T00:56:26.352Z,0
2018-04-25T00:57:27.745Z,0
2018-04-25T00:58:29.140Z,0
2018-04-25T00:59:30.530Z,0
2018-04-25T01:00:31.916Z,0
2018-04-25T01:01:33.307Z,0
2018-04-25T01:02:34.695Z,0
2018-04-25T01:03:36.090Z,0
2018-04-25T01:04:37.476Z,0
2018-04-25T01:05:38.868Z,0
2018-04-25T01:06:40.260Z,0
2018-04-25T01:07:41.648Z,0
2018-04-25T01:08:43.037Z,0
2018-04-25T01:09:44.424Z,0
2018-04-25T01:10:45.815Z,0
2018-04-25T01:11:47.246Z,0
2018-04-25T01:12:48.593Z,0
2018-04-25T01:13:49.988Z,0
2018-04-25T01:14:51.378Z,0
2018-04-25T01:15:52.769Z,0
2018-04-25T01:16:54.161Z,0
2018-04-25T01:17:55.547Z,0
2018-04-25T01:18:56.938Z,0
2018-04-25T01:19:58.328Z,0
2018-04-25T01:20:59.721Z,0
2018-04-25T01:22:01.111Z,0
2018-04-25T01:23:02.501Z,0
2018-04-25T01:24:03.893Z,0
2018-04-25T01:25:05.281Z,0
2018-04-25T01:26:06.674Z,0
2018-04-25T01:27:08.062Z,0
2018-04-25T01:28:09.466Z,0
2018-04-25T01:29:10.852Z,0
2018-04-25T01:30:12.242Z,0
2018-04-25T01:31:13.630Z,0
2018-04-25T01:32:15.026Z,0
2018-04-25T01:33:16.507Z,0
2018-04-25T01:34:17.928Z,0
2018-04-25T01:35:19.323Z,0
2018-04-25T01:36:20.714Z,0
2018-04-25T01:37:22.104Z,0
2018-04-25T01:38:23.492Z,0
2018-04-25T01:39:24.883Z,0
2018-04-25T01:40:26.272Z,0
2018-04-25T01:41:27.665Z,0
2018-04-25T01:42:29.059Z,0
2018-04-25T01:43:30.448Z,0
2018-04-25T01:44:31.837Z,0
2018-04-25T01:45:33.224Z,0
2018-04-25T01:46:34.616Z,0
2018-04-25T01:47:36.007Z,0
2018-04-25T01:48:37.398Z,0
2018-04-25T01:49:38.787Z,0
2018-04-25T01:50:40.184Z,0
2018-04-25T01:51:41.572Z,0
2018-04-25T01:52:42.964Z,0
2018-04-25T01:53:44.350Z,0
2018-04-25T01:54:45.742Z,0
2018-04-25T01:55:47.133Z,0
2018-04-25T01:56:48.528Z,0
2018-04-25T01:57:49.921Z,0
2018-04-25T01:58:51.309Z,0
2018-04-25T01:59:52.701Z,0
2018-04-25T02:00:54.091Z,0
2018-04-25T02:01:55.485Z,0
2018-04-25T02:02:56.877Z,0
2018-04-25T02:03:58.273Z,0
2018-04-25T02:04:59.662Z,0
2018-04-25T02:06:01.049Z,0
2018-04-25T02:07:02.441Z,0
2018-04-25T02:08:03.832Z,0
2018-04-25T02:09:05.236Z,0
2018-04-25T02:10:06.629Z,0
2018-04-25T02:11:08.023Z,0
2018-04-25T02:12:09.410Z,0
2018-04-25T02:13:10.800Z,0
2018-04-25T02:14:12.191Z,0
2018-04-25T02:15:13.577Z,0
2018-04-25T02:16:14.967Z,0
2018-04-25T02:17:16.360Z,0
2018-04-25T02:18:17.752Z,0
2018-04-25T02:19:19.143Z,0
2018-04-25T02:20:20.651Z,0
2018-04-25T02:21:22.108Z,0
2018-04-25T02:22:23.497Z,0
2018-04-25T02:23:24.888Z,0
2018-04-25T02:24:26.285Z,0
2018-04-25T02:25:27.673Z,0
2018-04-25T02:26:29.061Z,0
2018-04-25T02:27:30.454Z,0
2018-04-25T02:28:31.859Z,0
2018-04-25T02:29:33.233Z,0
2018-04-25T02:30:34.625Z,0
2018-04-25T02:31:36.013Z,0
2018-04-25T02:32:37.406Z,0
2018-04-25T02:33:38.795Z,0
2018-04-25T02:34:40.185Z,0
2018-04-25T02:35:41.577Z,0
2018-04-25T02:36:42.967Z,0
2018-04-25T02:37:44.355Z,0
2018-04-25T02:38:45.757Z,0
2018-04-25T02:39:47.153Z,0
2018-04-25T02:40:48.540Z,0
2018-04-25T02:41:49.933Z,0
2018-04-25T02:42:51.325Z,0
2018-04-25T02:43:52.714Z,0
2018-04-25T02:44:54.108Z,0
2018-04-25T02:45:55.495Z,0
2018-04-25T02:46:56.888Z,0
2018-04-25T02:47:58.280Z,0
2018-04-25T02:48:59.668Z,0
2018-04-25T02:50:01.069Z,0
2018-04-25T02:51:02.459Z,0
2018-04-25T02:52:03.848Z,0
2018-04-25T02:53:05.252Z,0
2018-04-25T02:54:06.647Z,0
2018-04-25T02:55:08.039Z,0
2018-04-25T02:56:09.428Z,0
2018-04-25T02:57:10.819Z,0
2018-04-25T02:58:12.212Z,0
2018-04-25T02:59:13.600Z,0
2018-04-25T03:00:14.988Z,0
2018-04-25T03:01:16.381Z,0
2018-04-25T03:02:17.769Z,0
2018-04-25T03:03:19.157Z,0
2018-04-25T03:04:20.569Z,0
2018-04-25T03:05:21.965Z,0
2018-04-25T03:06:23.354Z,0
2018-04-25T03:07:24.743Z,0
2018-04-25T03:08:26.150Z,0
2018-04-25T03:09:27.540Z,0
2018-04-25T03:10:28.928Z,0
2018-04-25T03:11:30.323Z,0
2018-04-25T03:12:31.718Z,0
2018-04-25T03:13:33.109Z,0
2018-04-25T03:14:34.498Z,0
2018-04-25T03:15:35.894Z,0
2018-04-25T03:16:37.285Z,0
2018-04-25T03:17:38.678Z,0
2018-04-25T03:18:40.071Z,0
2018-04-25T03:19:41.457Z,0
2018-04-25T03:20:42.844Z,0
2018-04-25T03:21:44.233Z,0
2018-04-25T03:22:45.632Z,0
2018-04-25T03:23:47.016Z,0
2018-04-25T03:24:48.410Z,0
2018-04-25T03:25:49.798Z,0
2018-04-25T03:26:51.192Z,0
2018-04-25T03:27:52.581Z,0
2018-04-25T03:28:53.970Z,0
2018-04-25T03:29:55.366Z,0
2018-04-25T03:30:56.751Z,0
2018-04-25T03:31:58.137Z,0
2018-04-25T03:32:59.527Z,0
2018-04-25T03:34:00.916Z,0
2018-04-25T03:35:02.315Z,0
2018-04-25T03:36:03.709Z,0
2018-04-25T03:37:05.097Z,0
2018-04-25T03:38:06.489Z,0
2018-04-25T03:39:07.877Z,0
2018-04-25T03:40:09.269Z,0
2018-04-25T03:41:10.674Z,0
2018-04-25T03:42:12.007Z,0
2018-04-25T03:43:13.399Z,0
2018-04-25T03:44:14.792Z,0
2018-04-25T03:45:16.178Z,0
2018-04-25T03:46:17.565Z,0
2018-04-25T03:47:18.952Z,0
2018-04-25T03:48:20.343Z,0
2018-04-25T03:49:21.732Z,0
2018-04-25T03:50:23.120Z,0
2018-04-25T03:51:24.512Z,0
2018-04-25T03:52:25.903Z,0
2018-04-25T03:53:27.301Z,0
2018-04-25T03:54:28.682Z,0
2018-04-25T03:55:30.075Z,4
2018-04-25T03:56:31.468Z,4
2018-04-25T03:57:32.957Z,4
2018-04-25T03:58:34.368Z,0
2018-04-25T03:59:35.753Z,0
2018-04-25T04:00:37.146Z,0
2018-04-25T04:01:38.537Z,0
2018-04-25T04:02:39.925Z,0
2018-04-25T04:03:41.322Z,0
2018-04-25T04:04:42.707Z,4
2018-04-25T04:05:44.098Z,0
2018-04-25T04:06:45.486Z,0
2018-04-25T04:07:46.876Z,4
2018-04-25T04:08:48.267Z,4
2018-04-25T04:09:49.654Z,4
2018-04-25T04:10:51.046Z,4
2018-04-25T04:11:52.439Z,8
2018-04-25T04:12:53.908Z,8
2018-04-25T04:13:55.215Z,8
2018-04-25T04:14:56.604Z,8
2018-04-25T04:15:57.993Z,12
2018-04-25T04:16:59.386Z,12
2018-04-25T04:18:00.777Z,16
2018-04-25T04:19:02.172Z,16
2018-04-25T04:20:03.567Z,16
2018-04-25T04:21:04.958Z,16
2018-04-25T04:22:06.349Z,12
2018-04-25T04:23:07.742Z,16
2018-04-25T04:24:09.125Z,24
2018-04-25T04:25:10.527Z,24
2018-04-25T04:26:11.920Z,28
2018-04-25T04:27:13.312Z,24
2018-04-25T04:28:14.703Z,24
2018-04-25T04:29:16.092Z,24
2018-04-25T04:30:17.484Z,24
2018-04-25T04:31:18.873Z,28
2018-04-25T04:32:20.261Z,32
2018-04-25T04:33:21.656Z,32
2018-04-25T04:34:23.048Z,36
2018-04-25T04:35:24.484Z,48
2018-04-25T04:36:25.879Z,44
2018-04-25T04:37:27.272Z,48
2018-04-25T04:38:28.662Z,52
2018-04-25T04:39:30.054Z,68
2018-04-25T04:40:31.445Z,96
2018-04-25T04:41:32.839Z,96
2018-04-25T04:42:34.227Z,84
2018-04-25T04:43:35.617Z,100
2018-04-25T04:44:37.013Z,92
2018-04-25T04:45:38.402Z,84
2018-04-25T04:46:39.807Z,92
2018-04-25T04:47:41.230Z,96
2018-04-25T04:48:42.623Z,72
2018-04-25T04:49:44.013Z,72
2018-04-25T04:50:45.412Z,88
2018-04-25T04:51:46.814Z,72
2018-04-25T04:52:48.190Z,76
2018-04-25T04:53:49.657Z,76
2018-04-25T04:54:50.972Z,72
2018-04-25T04:55:52.365Z,76
2018-04-25T04:56:53.755Z,112
2018-04-25T04:57:55.143Z,124
2018-04-25T04:58:56.535Z,120
2018-04-25T04:59:57.925Z,144
2018-04-25T05:00:59.318Z,136
2018-04-25T05:02:00.719Z,124
2018-04-25T05:03:02.130Z,96
2018-04-25T05:04:03.524Z,104
2018-04-25T05:05:04.913Z,100
2018-04-25T05:06:06.301Z,88
2018-04-25T05:07:07.696Z,80
2018-04-25T05:08:09.088Z,84
2018-04-25T05:09:10.477Z,68
2018-04-25T05:10:11.872Z,64
2018-04-25T05:11:13.283Z,80
2018-04-25T05:12:14.672Z,124
2018-04-25T05:13:16.064Z,108
2018-04-25T05:14:17.458Z,120
2018-04-25T05:15:18.852Z,128
2018-04-25T05:16:20.273Z,152
2018-04-25T05:17:21.634Z,180
2018-04-25T05:18:23.024Z,216
2018-04-25T05:19:24.412Z,220
2018-04-25T05:20:25.804Z,276
2018-04-25T05:21:27.198Z,280
2018-04-25T05:22:28.590Z,196
2018-04-25T05:23:30.010Z,156
2018-04-25T05:24:31.422Z,128
2018-04-25T05:25:32.797Z,120
2018-04-25T05:26:34.195Z,120
2018-04-25T05:27:35.616Z,112
2018-04-25T05:28:37.017Z,124
2018-04-25T05:29:38.410Z,112
2018-04-25T05:30:39.804Z,104
2018-04-25T05:31:41.192Z,112
2018-04-25T05:32:42.588Z,112
2018-04-25T05:33:43.979Z,120
2018-04-25T05:34:45.507Z,112
2018-04-25T05:35:47.004Z,144
2018-04-25T05:36:48.398Z,168
2018-04-25T05:37:49.791Z,240
2018-04-25T05:38:51.188Z,348
2018-04-25T05:39:52.581Z,444
2018-04-25T05:40:53.971Z,504
2018-04-25T05:41:55.363Z,556
2018-04-25T05:42:56.761Z,544
2018-04-25T05:43:58.155Z,516
2018-04-25T05:44:59.551Z,516
2018-04-25T05:46:01.005Z,532
2018-04-25T05:47:02.339Z,572
2018-04-25T05:48:03.728Z,580
2018-04-25T05:49:05.122Z,604
2018-04-25T05:50:06.515Z,632
2018-04-25T05:51:07.912Z,744
2018-04-25T05:52:09.312Z,644
2018-04-25T05:53:10.709Z,672
2018-04-25T05:54:12.094Z,764
2018-04-25T05:55:13.494Z,836
2018-04-25T05:56:14.886Z,924
2018-04-25T05:57:16.276Z,944
2018-04-25T05:58:17.674Z,1008
2018-04-25T05:59:19.070Z,716
2018-04-25T06:00:20.463Z,472
2018-04-25T06:01:21.855Z,436
2018-04-25T06:02:23.254Z,568
2018-04-25T06:03:24.641Z,644
2018-04-25T06:04:26.046Z,824
2018-04-25T06:05:27.435Z,1368
2018-04-25T06:06:28.831Z,1620
2018-04-25T06:07:30.223Z,1380
2018-04-25T06:08:31.616Z,1056
2018-04-25T06:09:33.013Z,876
2018-04-25T06:10:34.408Z,880
2018-04-25T06:11:35.806Z,1140
2018-04-25T06:12:37.219Z,1220
2018-04-25T06:13:38.595Z,1108
2018-04-25T06:14:39.991Z,1348
2018-04-25T06:15:41.385Z,1352
2018-04-25T06:16:42.779Z,1396
2018-04-25T06:17:44.172Z,1108
2018-04-25T06:18:45.568Z,1120
2018-04-25T06:19:46.964Z,1032
2018-04-25T06:20:48.360Z,996
2018-04-25T06:21:49.758Z,1024
2018-04-25T06:22:51.172Z,1180
2018-04-25T06:23:52.570Z,1252
2018-04-25T06:24:53.965Z,1280
2018-04-25T06:25:55.360Z,1256
2018-04-25T06:26:56.754Z,1100
2018-04-25T06:27:58.152Z,1252
2018-04-25T06:28:59.557Z,1444
2018-04-25T06:30:00.941Z,1184
2018-04-25T06:31:02.332Z,956
2018-04-25T06:32:03.730Z,880
2018-04-25T06:33:05.124Z,948
2018-04-25T06:34:06.521Z,1036
2018-04-25T06:35:07.916Z,836
2018-04-25T06:36:09.311Z,836
2018-04-25T06:37:10.705Z,1312
2018-04-25T06:38:12.098Z,1480
2018-04-25T06:39:13.492Z,1484
2018-04-25T06:40:14.883Z,1364
2018-04-25T06:41:16.278Z,980
2018-04-25T06:42:17.673Z,1012
2018-04-25T06:43:19.071Z,1392
2018-04-25T06:44:20.464Z,1804
2018-04-25T06:45:21.854Z,1664
2018-04-25T06:46:23.247Z,1600
2018-04-25T06:47:24.642Z,1360
2018-04-25T06:48:26.040Z,1468
2018-04-25T06:49:27.433Z,1388
2018-04-25T06:50:28.828Z,1344
2018-04-25T06:51:30.221Z,1296
2018-04-25T06:52:31.616Z,1384
2018-04-25T06:53:33.007Z,1400
2018-04-25T06:54:34.401Z,1616
2018-04-25T06:55:35.798Z,1608
2018-04-25T06:56:37.192Z,1448
2018-04-25T06:57:38.591Z,1464
2018-04-25T06:58:39.983Z,1284
2018-04-25T06:59:41.378Z,1460
2018-04-25T07:00:42.771Z,1112
2018-04-25T07:01:44.164Z,860
2018-04-25T07:02:45.576Z,752
2018-04-25T07:03:46.973Z,784
2018-04-25T07:04:48.364Z,896
2018-04-25T07:05:49.767Z,1100
2018-04-25T07:06:51.153Z,1196
2018-04-25T07:07:52.612Z,1024
2018-04-25T07:08:53.942Z,900
2018-04-25T07:09:55.462Z,1120
2018-04-25T07:10:56.889Z,1132
2018-04-25T07:11:58.285Z,1328
2018-04-25T07:12:59.681Z,1184
2018-04-25T07:14:01.118Z,940
2018-04-25T07:15:02.475Z,844
2018-04-25T07:16:03.871Z,744
2018-04-25T07:17:05.265Z,756
2018-04-25T07:18:06.669Z,996
2018-04-25T07:19:08.055Z,1036
2018-04-25T07:20:09.449Z,1012
2018-04-25T07:21:10.841Z,1192
2018-04-25T07:22:12.238Z,1088
2018-04-25T07:23:13.628Z,1064
2018-04-25T07:24:15.023Z,1408
2018-04-25T07:25:16.417Z,1756
2018-04-25T07:26:17.824Z,1620
2018-04-25T07:27:19.217Z,1740
2018-04-25T07:28:20.636Z,1960
2018-04-25T07:29:22.031Z,2004
2018-04-25T07:30:23.423Z,1896
2018-04-25T07:31:24.839Z,1916
2018-04-25T07:32:26.231Z,1744
2018-04-25T07:33:27.627Z,1600
2018-04-25T07:34:29.021Z,1488
2018-04-25T07:35:30.415Z,1256
2018-04-25T07:36:31.808Z,1124
2018-04-25T07:37:33.205Z,1200
2018-04-25T07:38:34.600Z,1760
2018-04-25T07:39:35.995Z,1620
2018-04-25T07:40:37.391Z,1412
2018-04-25T07:41:38.793Z,1360
2018-04-25T07:42:40.175Z,1240
2018-04-25T07:43:41.568Z,1188
2018-04-25T07:44:42.961Z,1400
2018-04-25T07:45:44.355Z,1796
2018-04-25T07:46:45.751Z,1740
2018-04-25T07:47:47.148Z,2308
2018-04-25T07:48:48.536Z,1388
2018-04-25T07:49:49.928Z,1152
2018-04-25T07:50:51.324Z,1664
2018-04-25T07:51:52.717Z,2520
2018-04-25T07:52:54.111Z,2944
2018-04-25T07:53:55.508Z,3288
2018-04-25T07:54:56.904Z,2948
2018-04-25T07:55:58.297Z,3116
2018-04-25T07:56:59.691Z,3996
2018-04-25T07:58:01.155Z,3620
2018-04-25T07:59:02.577Z,3724
2018-04-25T08:00:03.973Z,3160
2018-04-25T08:01:05.374Z,3264
2018-04-25T08:02:06.767Z,4656
2018-04-25T08:03:08.161Z,5224
2018-04-25T08:04:09.551Z,4084
2018-04-25T08:05:10.948Z,3756
2018-04-25T08:06:12.345Z,4092
2018-04-25T08:07:13.740Z,3244
2018-04-25T08:08:15.135Z,3984
2018-04-25T08:09:16.532Z,3792
2018-04-25T08:10:17.927Z,5748
2018-04-25T08:11:19.323Z,6328
2018-04-25T08:12:20.757Z,6208
2018-04-25T08:13:22.118Z,6560
2018-04-25T08:14:23.514Z,6120
2018-04-25T08:15:24.913Z,5108
2018-04-25T08:16:26.311Z,5120
2018-04-25T08:17:27.702Z,5928
2018-04-25T08:18:29.103Z,6028
2018-04-25T08:19:30.497Z,6512
2018-04-25T08:20:31.891Z,5604
2018-04-25T08:21:33.288Z,4972
2018-04-25T08:22:34.685Z,4460
2018-04-25T08:23:36.157Z,5344
2018-04-25T08:24:37.475Z,5260
2018-04-25T08:25:38.874Z,5400
2018-04-25T08:26:40.267Z,5664
2018-04-25T08:27:41.666Z,6052
2018-04-25T08:28:43.059Z,7016
2018-04-25T08:29:44.455Z,6324
2018-04-25T08:30:45.856Z,7272
2018-04-25T08:31:47.250Z,6212
2018-04-25T08:32:48.645Z,5208
2018-04-25T08:33:50.041Z,5380
2018-04-25T08:34:51.441Z,5628
2018-04-25T08:35:52.832Z,5192
2018-04-25T08:36:54.232Z,5212
2018-04-25T08:37:55.629Z,4848
2018-04-25T08:38:57.023Z,4756
2018-04-25T08:39:58.420Z,4780
2018-04-25T08:40:59.816Z,5164
2018-04-25T08:42:01.214Z,5156
2018-04-25T08:43:02.607Z,4668
2018-04-25T08:44:04.004Z,4228
2018-04-25T08:45:05.530Z,5008
2018-04-25T08:46:06.929Z,3772
2018-04-25T08:47:08.324Z,7608
2018-04-25T08:48:09.721Z,8076
2018-04-25T08:49:11.118Z,5344
2018-04-25T08:50:12.514Z,5112
2018-04-25T08:51:13.909Z,7552
2018-04-25T08:52:15.312Z,7768
2018-04-25T08:53:16.700Z,8180
2018-04-25T08:54:18.097Z,8224
2018-04-25T08:55:19.493Z,7124
2018-04-25T08:56:20.890Z,7136
2018-04-25T08:57:22.289Z,7088
2018-04-25T08:58:23.692Z,5884
2018-04-25T08:59:25.085Z,7124
2018-04-25T09:00:26.484Z,7608
2018-04-25T09:01:27.882Z,6788
2018-04-25T09:02:29.281Z,7944
2018-04-25T09:03:30.679Z,8588
2018-04-25T09:04:32.073Z,7236
2018-04-25T09:05:33.471Z,6460
2018-04-25T09:06:34.874Z,5996
2018-04-25T09:07:36.264Z,8008
2018-04-25T09:08:37.663Z,8396
2018-04-25T09:09:39.059Z,7452
2018-04-25T09:10:40.453Z,5472
2018-04-25T09:11:41.857Z,7748
2018-04-25T09:12:43.255Z,5404
2018-04-25T09:13:44.653Z,8340
2018-04-25T09:14:46.046Z,6904
2018-04-25T09:15:47.450Z,7132
2018-04-25T09:16:48.842Z,7356
2018-04-25T09:17:50.239Z,6856
2018-04-25T09:18:51.638Z,6044
2018-04-25T09:19:53.042Z,8024
2018-04-25T09:20:54.441Z,7372
2018-04-25T09:21:55.837Z,7824
2018-04-25T09:22:57.241Z,8900
2018-04-25T09:23:58.643Z,9276
2018-04-25T09:25:00.041Z,7176
2018-04-25T09:26:01.454Z,6824
2018-04-25T09:27:02.839Z,7476
2018-04-25T09:28:04.237Z,7156
2018-04-25T09:29:05.633Z,8388
2018-04-25T09:30:07.027Z,8452
2018-04-25T09:31:08.454Z,9216
2018-04-25T09:32:09.967Z,9444
2018-04-25T09:33:11.305Z,9792
2018-04-25T09:34:12.704Z,8600
2018-04-25T09:35:14.113Z,9832
2018-04-25T09:36:15.496Z,8644
2018-04-25T09:37:16.893Z,8732
2018-04-25T09:38:18.293Z,4120
2018-04-25T09:39:19.692Z,6368
2018-04-25T09:40:21.091Z,3404
2018-04-25T09:41:22.532Z,3840
2018-04-25T09:42:23.888Z,9320
2018-04-25T09:43:25.282Z,4716
2018-04-25T09:44:26.676Z,7880
2018-04-25T09:45:28.071Z,4836
2018-04-25T09:46:29.470Z,9540
2018-04-25T09:47:30.874Z,4288
2018-04-25T09:48:32.334Z,4456
2018-04-25T09:49:33.732Z,4648
2018-04-25T09:50:35.131Z,6392
2018-04-25T09:51:36.528Z,11736
2018-04-25T09:52:37.922Z,7844
2018-04-25T09:53:39.319Z,5908
2018-04-25T09:54:40.718Z,5244
2018-04-25T09:55:42.115Z,5448
2018-04-25T09:56:43.521Z,5480
2018-04-25T09:57:44.952Z,12420
2018-04-25T09:58:46.315Z,11016
2018-04-25T09:59:47.711Z,5160
2018-04-25T10:00:49.112Z,4464
2018-04-25T10:01:50.513Z,5284
2018-04-25T10:02:51.911Z,4720
2018-04-25T10:03:53.375Z,4164
2018-04-25T10:04:54.711Z,4184
2018-04-25T10:05:56.101Z,3388
2018-04-25T10:06:57.523Z,2572
2018-04-25T10:07:58.897Z,2308
2018-04-25T10:09:00.292Z,2288
2018-04-25T10:10:01.687Z,2304
2018-04-25T10:11:03.088Z,2532
2018-04-25T10:12:04.487Z,3132
2018-04-25T10:13:05.884Z,4212
2018-04-25T10:14:07.286Z,3660
2018-04-25T10:15:08.681Z,3524
2018-04-25T10:16:10.075Z,3228
2018-04-25T10:17:11.542Z,4036
2018-04-25T10:18:12.922Z,7180
2018-04-25T10:19:14.357Z,4676
2018-04-25T10:20:15.757Z,15092
2018-04-25T10:21:17.149Z,6156
2018-04-25T10:22:18.597Z,3208
2018-04-25T10:23:19.952Z,2920
2018-04-25T10:24:21.342Z,2876
2018-04-25T10:25:22.744Z,2716
2018-04-25T10:26:24.227Z,2368
2018-04-25T10:27:25.625Z,4136
2018-04-25T10:28:27.021Z,18944
2018-04-25T10:29:28.420Z,5072
2018-04-25T10:30:29.813Z,3668
2018-04-25T10:31:31.211Z,2376
2018-04-25T10:32:32.608Z,1600
2018-04-25T10:33:34.001Z,1400
2018-04-25T10:34:35.392Z,2048
2018-04-25T10:35:36.792Z,2924
2018-04-25T10:36:38.187Z,5128
2018-04-25T10:37:39.587Z,5004
2018-04-25T10:38:41.017Z,4764
2018-04-25T10:39:42.385Z,6304
2018-04-25T10:40:43.778Z,8752
2018-04-25T10:41:45.181Z,39776
2018-04-25T10:42:46.577Z,6220
2018-04-25T10:43:47.971Z,5356
2018-04-25T10:44:49.372Z,7176
2018-04-25T10:45:50.770Z,3808
2018-04-25T10:46:52.173Z,3308
2018-04-25T10:47:53.572Z,3508
2018-04-25T10:48:54.964Z,4188
2018-04-25T10:49:56.365Z,4108
2018-04-25T10:50:57.762Z,3472
2018-04-25T10:51:59.161Z,3816
2018-04-25T10:53:00.623Z,4944
2018-04-25T10:54:02.316Z,6164
2018-04-25T10:55:03.717Z,6740
2018-04-25T10:56:05.116Z,9100
2018-04-25T10:57:06.544Z,12764
2018-04-25T10:58:07.925Z,8140
2018-04-25T10:59:09.326Z,12184
2018-04-25T11:00:10.727Z,8816
2018-04-25T11:01:12.126Z,13908
2018-04-25T11:02:13.522Z,17376
2018-04-25T11:03:14.917Z,9028
2018-04-25T11:04:16.336Z,8708
2018-04-25T11:05:17.769Z,8616
2018-04-25T11:06:19.168Z,8092
2018-04-25T11:07:20.639Z,8724
2018-04-25T11:08:21.976Z,20608
2018-04-25T11:09:23.365Z,10004
2018-04-25T11:10:24.769Z,6856
2018-04-25T11:11:26.160Z,5844
2018-04-25T11:12:27.555Z,5112
2018-04-25T11:13:29.028Z,4976
2018-04-25T11:14:30.353Z,5044
2018-04-25T11:15:31.755Z,5884
2018-04-25T11:16:33.153Z,7876
2018-04-25T11:17:34.569Z,6280
2018-04-25T11:18:35.967Z,7732
2018-04-25T11:19:37.365Z,4928
2018-04-25T11:20:38.764Z,6064
2018-04-25T11:21:40.162Z,4284
2018-04-25T11:22:41.560Z,4072
2018-04-25T11:23:42.956Z,4080
2018-04-25T11:24:44.353Z,5244
2018-04-25T11:25:45.759Z,5332
2018-04-25T11:26:47.149Z,6080
2018-04-25T11:27:48.537Z,5188
2018-04-25T11:28:50.009Z,5888
2018-04-25T11:29:51.566Z,25248
2018-04-25T11:30:53.152Z,5352
2018-04-25T11:31:54.612Z,5088
2018-04-25T11:32:55.954Z,6448
2018-04-25T11:33:57.351Z,5192
2018-04-25T11:34:58.751Z,5420
2018-04-25T11:36:00.144Z,6112
2018-04-25T11:37:01.548Z,18080
2018-04-25T11:38:02.946Z,10440
2018-04-25T11:39:04.343Z,10036
2018-04-25T11:40:05.745Z,9384
2018-04-25T11:41:07.156Z,13176
2018-04-25T11:42:08.548Z,8808
2018-04-25T11:43:09.949Z,16704
2018-04-25T11:44:11.348Z,13644
2018-04-25T11:45:12.745Z,8164
2018-04-25T11:46:14.141Z,13116
2018-04-25T11:47:15.589Z,8280
2018-04-25T11:48:16.947Z,21504
2018-04-25T11:49:18.333Z,14024
2018-04-25T11:50:19.783Z,14512
2018-04-25T11:51:21.304Z,8544
2018-04-25T11:52:22.703Z,5396
2018-04-25T11:53:24.101Z,5628
2018-04-25T11:54:25.499Z,5120
2018-04-25T11:55:26.898Z,6508
2018-04-25T11:56:28.296Z,9000
2018-04-25T11:57:29.695Z,6860
2018-04-25T11:58:31.093Z,6340
2018-04-25T11:59:32.561Z,6552
2018-04-25T12:00:33.888Z,9988
2018-04-25T12:01:35.285Z,6332
2018-04-25T12:02:36.685Z,6252
2018-04-25T12:03:38.081Z,12624
2018-04-25T12:04:39.483Z,6732
2018-04-25T12:05:40.881Z,8160
2018-04-25T12:06:42.276Z,6248
2018-04-25T12:07:43.672Z,5472
2018-04-25T12:08:45.066Z,4996
2018-04-25T12:09:46.460Z,5072
2018-04-25T12:10:47.866Z,5436
2018-04-25T12:11:49.257Z,5260
2018-04-25T12:12:50.661Z,5404
2018-04-25T12:13:52.299Z,10168
2018-04-25T12:14:53.692Z,7588
2018-04-25T12:15:55.091Z,7808
2018-04-25T12:16:56.489Z,9648
2018-04-25T12:17:57.887Z,7312
2018-04-25T12:18:59.287Z,6656
2018-04-25T12:20:00.682Z,6576
2018-04-25T12:21:02.075Z,4728
2018-04-25T12:22:03.475Z,4912
2018-04-25T12:23:04.870Z,8816
2018-04-25T12:24:06.271Z,19200
2018-04-25T12:25:07.670Z,7748
2018-04-25T12:26:09.066Z,7796
2018-04-25T12:27:10.753Z,8572
2018-04-25T12:28:12.135Z,8848
2018-04-25T12:29:13.530Z,9232
2018-04-25T12:30:14.931Z,6512
2018-04-25T12:31:16.329Z,4304
2018-04-25T12:32:17.725Z,3752
2018-04-25T12:33:19.121Z,4688
2018-04-25T12:34:20.517Z,3940
2018-04-25T12:35:21.917Z,4376
2018-04-25T12:36:23.326Z,6600
2018-04-25T12:37:24.737Z,7252
2018-04-25T12:38:26.134Z,7388
2018-04-25T12:39:27.540Z,10468
2018-04-25T12:40:28.932Z,14504
2018-04-25T12:41:30.332Z,6500
2018-04-25T12:42:31.729Z,6220
2018-04-25T12:43:33.125Z,4620
2018-04-25T12:44:34.529Z,4576
2018-04-25T12:45:35.921Z,6504
2018-04-25T12:46:37.321Z,6828
2018-04-25T12:47:38.718Z,26656
2018-04-25T12:48:40.116Z,15312
2018-04-25T12:49:41.509Z,5896
2018-04-25T12:50:42.907Z,5004
2018-04-25T12:51:44.305Z,4648
2018-04-25T12:52:45.703Z,5384
2018-04-25T12:53:47.103Z,5996
2018-04-25T12:54:48.501Z,7752
2018-04-25T12:55:49.902Z,12904
2018-04-25T12:56:51.300Z,18208
2018-04-25T12:57:52.695Z,9344
2018-04-25T12:58:54.095Z,8632
2018-04-25T12:59:55.501Z,15180
2018-04-25T13:00:56.903Z,13852
2018-04-25T13:01:58.307Z,6708
2018-04-25T13:02:59.702Z,4736
2018-04-25T13:04:01.100Z,3876
2018-04-25T13:05:02.497Z,3536
2018-04-25T13:06:03.892Z,3812
2018-04-25T13:07:05.286Z,4572
2018-04-25T13:08:06.685Z,4548
2018-04-25T13:09:08.092Z,3968
2018-04-25T13:10:09.483Z,3248
2018-04-25T13:11:10.879Z,3232
2018-04-25T13:12:12.277Z,3916
2018-04-25T13:13:13.677Z,3932
2018-04-25T13:14:15.075Z,4300
2018-04-25T13:15:16.468Z,4384
2018-04-25T13:16:17.865Z,4616
2018-04-25T13:17:19.267Z,4256
2018-04-25T13:18:20.665Z,4068
2018-04-25T13:19:22.059Z,4304
2018-04-25T13:20:23.458Z,4056
2018-04-25T13:21:24.888Z,3924
2018-04-25T13:22:26.257Z,4344
2018-04-25T13:23:27.692Z,3740
2018-04-25T13:24:29.215Z,3368
2018-04-25T13:25:30.610Z,3004
2018-04-25T13:26:32.094Z,2480
2018-04-25T13:27:33.489Z,2192
2018-04-25T13:28:34.882Z,2044
2018-04-25T13:29:36.282Z,1936
2018-04-25T13:30:37.682Z,1760
2018-04-25T13:31:39.075Z,1592
2018-04-25T13:32:40.472Z,1440
2018-04-25T13:33:41.871Z,1460
2018-04-25T13:34:43.266Z,1584
2018-04-25T13:35:44.663Z,1672
2018-04-25T13:36:46.061Z,1756
2018-04-25T13:37:47.534Z,1912
2018-04-25T13:38:48.862Z,1956
2018-04-25T13:39:50.257Z,1744
2018-04-25T13:40:51.652Z,1656
2018-04-25T13:41:53.051Z,1868
2018-04-25T13:42:54.446Z,2272
2018-04-25T13:43:55.873Z,2824
2018-04-25T13:44:57.268Z,3176
2018-04-25T13:45:58.673Z,3236
2018-04-25T13:47:00.062Z,4352
2018-04-25T13:48:01.462Z,4744
2018-04-25T13:49:02.864Z,13548
2018-04-25T13:50:04.264Z,21952
2018-04-25T13:51:05.665Z,10868
2018-04-25T13:52:07.058Z,9572
2018-04-25T13:53:08.461Z,20736
2018-04-25T13:54:09.858Z,20128
2018-04-25T13:55:11.252Z,6184
2018-04-25T13:56:12.648Z,5268
2018-04-25T13:57:14.045Z,5696
2018-04-25T13:58:15.443Z,5864
2018-04-25T13:59:16.844Z,6680
2018-04-25T14:00:18.256Z,5796
2018-04-25T14:01:19.653Z,5332
2018-04-25T14:02:21.053Z,4656
2018-04-25T14:03:22.447Z,4468
2018-04-25T14:04:23.844Z,4296
2018-04-25T14:05:25.243Z,3992
2018-04-25T14:06:26.641Z,3932